sensor_id;sensor_type;location;lat;lon;timestamp;P1;durP1;ratioP1;P2;durP2;ratioP2
20423;SDS011;10371;49.042;8.002;2023-06-10T00:00:25;7.65;;;6.95;;
20423;SDS011;10371;49.042;8.002;2023-06-10T00:01:26;7.65;;;6.93;;
20423;SDS011;10371;49.042;8.002;2023-06-10T00:02:27;6.95;;;6.45;;
20423;SDS011;10371;49.042;8.002;2023-06-10T00:03:28;7.07;;;6.47;;
20423;SDS011;10371;49.042;8.002;2023-06-10T00:04:28;6.75;;;6.15;;
20423;SDS011;10371;49.042;8.002;2023-06-10T00:05:28;7.70;;;7.10;;
20423;SDS011;10371;49.042;8.002;2023-06-10T00:06:30;7.65;;;6.90;;
20423;SDS011;10371;49.042;8.002;2023-06-10T00:07:35;8.07;;;7.10;;
20423;SDS011;10371;49.042;8.002;2023-06-10T00:08:37;7.53;;;6.82;;
20423;SDS011;10371;49.042;8.002;2023-06-10T00:09:39;8.57;;;7.32;;
20423;SDS011;10371;49.042;8.002;2023-06-10T00:10:40;7.60;;;6.90;;
20423;SDS011;10371;49.042;8.002;2023-06-10T00:11:41;8.00;;;7.13;;
20423;SDS011;10371;49.042;8.002;2023-06-10T00:12:41;8.10;;;7.32;;
20423;SDS011;10371;49.042;8.002;2023-06-10T00:13:42;9.13;;;8.32;;
20423;SDS011;10371;49.042;8.002;2023-06-10T00:14:42;8.43;;;7.72;;
20423;SDS011;10371;49.042;8.002;2023-06-10T00:15:43;7.88;;;7.18;;
20423;SDS011;10371;49.042;8.002;2023-06-10T00:16:43;7.82;;;7.22;;
20423;SDS011;10371;49.042;8.002;2023-06-10T00:17:44;8.00;;;7.22;;
20423;SDS011;10371;49.042;8.002;2023-06-10T00:18:45;7.85;;;7.15;;
20423;SDS011;10371;49.042;8.002;2023-06-10T00:19:47;8.07;;;7.38;;
20423;SDS011;10371;49.042;8.002;2023-06-10T00:20:47;8.18;;;7.47;;
20423;SDS011;10371;49.042;8.002;2023-06-10T00:21:48;7.95;;;7.35;;
20423;SDS011;10371;49.042;8.002;2023-06-10T00:22:51;8.23;;;7.47;;
20423;SDS011;10371;49.042;8.002;2023-06-10T00:23:51;8.10;;;7.47;;
20423;SDS011;10371;49.042;8.002;2023-06-10T00:24:51;7.72;;;7.03;;
20423;SDS011;10371;49.042;8.002;2023-06-10T00:25:52;7.95;;;7.28;;
20423;SDS011;10371;49.042;8.002;2023-06-10T00:26:52;7.60;;;7.00;;
20423;SDS011;10371;49.042;8.002;2023-06-10T00:27:52;7.90;;;7.20;;
20423;SDS011;10371;49.042;8.002;2023-06-10T00:28:52;7.90;;;7.40;;
20423;SDS011;10371;49.042;8.002;2023-06-10T00:29:53;8.07;;;7.32;;
20423;SDS011;10371;49.042;8.002;2023-06-10T00:30:53;8.27;;;7.47;;
20423;SDS011;10371;49.042;8.002;2023-06-10T00:31:53;7.82;;;7.07;;
20423;SDS011;10371;49.042;8.002;2023-06-10T00:32:57;8.27;;;7.57;;
20423;SDS011;10371;49.042;8.002;2023-06-10T00:33:57;7.85;;;7.25;;
20423;SDS011;10371;49.042;8.002;2023-06-10T00:34:58;7.93;;;7.32;;
20423;SDS011;10371;49.042;8.002;2023-06-10T00:35:59;7.63;;;6.95;;
20423;SDS011;10371;49.042;8.002;2023-06-10T00:36:59;7.90;;;7.07;;
20423;SDS011;10371;49.042;8.002;2023-06-10T00:37:59;7.80;;;7.15;;
20423;SDS011;10371;49.042;8.002;2023-06-10T00:39:00;7.82;;;7.13;;
20423;SDS011;10371;49.042;8.002;2023-06-10T00:40:00;7.95;;;7.35;;
20423;SDS011;10371;49.042;8.002;2023-06-10T00:41:00;7.80;;;7.13;;
20423;SDS011;10371;49.042;8.002;2023-06-10T00:42:01;8.43;;;7.70;;
20423;SDS011;10371;49.042;8.002;2023-06-10T00:43:01;7.82;;;7.22;;
20423;SDS011;10371;49.042;8.002;2023-06-10T00:44:02;7.78;;;7.07;;
20423;SDS011;10371;49.042;8.002;2023-06-10T00:45:03;8.02;;;7.43;;
20423;SDS011;10371;49.042;8.002;2023-06-10T00:46:03;8.50;;;7.20;;
20423;SDS011;10371;49.042;8.002;2023-06-10T00:47:04;7.97;;;7.28;;
20423;SDS011;10371;49.042;8.002;2023-06-10T00:48:05;8.02;;;7.32;;
20423;SDS011;10371;49.042;8.002;2023-06-10T00:49:05;7.40;;;6.80;;
20423;SDS011;10371;49.042;8.002;2023-06-10T00:50:06;7.45;;;6.78;;
20423;SDS011;10371;49.042;8.002;2023-06-10T00:51:07;7.55;;;6.85;;
20423;SDS011;10371;49.042;8.002;2023-06-10T00:52:09;7.45;;;6.80;;
20423;SDS011;10371;49.042;8.002;2023-06-10T00:53:10;7.65;;;7.05;;
20423;SDS011;10371;49.042;8.002;2023-06-10T00:54:10;7.32;;;6.65;;
20423;SDS011;10371;49.042;8.002;2023-06-10T00:55:13;7.60;;;7.00;;
20423;SDS011;10371;49.042;8.002;2023-06-10T00:56:16;8.25;;;7.47;;
20423;SDS011;10371;49.042;8.002;2023-06-10T00:57:17;7.70;;;7.03;;
20423;SDS011;10371;49.042;8.002;2023-06-10T00:58:17;8.30;;;7.45;;
20423;SDS011;10371;49.042;8.002;2023-06-10T00:59:18;8.25;;;7.38;;
20423;SDS011;10371;49.042;8.002;2023-06-10T01:00:18;7.60;;;6.80;;
20423;SDS011;10371;49.042;8.002;2023-06-10T01:01:19;8.57;;;7.68;;
20423;SDS011;10371;49.042;8.002;2023-06-10T01:02:19;7.43;;;6.75;;
20423;SDS011;10371;49.042;8.002;2023-06-10T01:03:20;7.15;;;6.55;;
20423;SDS011;10371;49.042;8.002;2023-06-10T01:04:20;7.88;;;7.13;;
20423;SDS011;10371;49.042;8.002;2023-06-10T01:05:22;7.90;;;7.20;;
20423;SDS011;10371;49.042;8.002;2023-06-10T01:08:55;7.30;;;6.80;;
20423;SDS011;10371;49.042;8.002;2023-06-10T01:10:08;6.85;;;6.25;;
20423;SDS011;10371;49.042;8.002;2023-06-10T01:11:12;7.55;;;6.93;;
20423;SDS011;10371;49.042;8.002;2023-06-10T01:12:30;7.68;;;6.97;;
20423;SDS011;10371;49.042;8.002;2023-06-10T01:13:47;7.97;;;7.28;;
20423;SDS011;10371;49.042;8.002;2023-06-10T01:14:51;7.15;;;6.55;;
20423;SDS011;10371;49.042;8.002;2023-06-10T01:15:52;7.88;;;7.10;;
20423;SDS011;10371;49.042;8.002;2023-06-10T01:16:53;7.72;;;6.57;;
20423;SDS011;10371;49.042;8.002;2023-06-10T01:18:00;7.82;;;7.13;;
20423;SDS011;10371;49.042;8.002;2023-06-10T01:19:02;7.15;;;6.40;;
20423;SDS011;10371;49.042;8.002;2023-06-10T01:20:03;7.10;;;6.60;;
20423;SDS011;10371;49.042;8.002;2023-06-10T01:21:04;7.55;;;6.95;;
20423;SDS011;10371;49.042;8.002;2023-06-10T01:22:04;7.25;;;6.65;;
20423;SDS011;10371;49.042;8.002;2023-06-10T01:23:05;7.47;;;6.80;;
20423;SDS011;10371;49.042;8.002;2023-06-10T01:24:06;7.40;;;6.80;;
20423;SDS011;10371;49.042;8.002;2023-06-10T01:25:08;7.40;;;6.82;;
20423;SDS011;10371;49.042;8.002;2023-06-10T01:26:09;7.40;;;6.82;;
20423;SDS011;10371;49.042;8.002;2023-06-10T01:27:12;7.75;;;7.05;;
20423;SDS011;10371;49.042;8.002;2023-06-10T01:28:19;7.43;;;6.72;;
20423;SDS011;10371;49.042;8.002;2023-06-10T01:30:00;8.55;;;7.22;;
20423;SDS011;10371;49.042;8.002;2023-06-10T01:32:09;6.97;;;6.38;;
20423;SDS011;10371;49.042;8.002;2023-06-10T01:33:13;7.60;;;6.80;;
20423;SDS011;10371;49.042;8.002;2023-06-10T01:34:17;7.22;;;6.18;;
20423;SDS011;10371;49.042;8.002;2023-06-10T01:35:18;7.20;;;6.60;;
20423;SDS011;10371;49.042;8.002;2023-06-10T01:36:24;7.05;;;6.45;;
20423;SDS011;10371;49.042;8.002;2023-06-10T01:37:25;7.30;;;6.70;;
20423;SDS011;10371;49.042;8.002;2023-06-10T01:38:26;7.38;;;6.78;;
20423;SDS011;10371;49.042;8.002;2023-06-10T01:39:27;7.15;;;6.50;;
20423;SDS011;10371;49.042;8.002;2023-06-10T01:40:28;6.78;;;6.28;;
20423;SDS011;10371;49.042;8.002;2023-06-10T01:41:29;7.97;;;7.28;;
20423;SDS011;10371;49.042;8.002;2023-06-10T01:42:30;7.75;;;7.10;;
20423;SDS011;10371;49.042;8.002;2023-06-10T01:43:37;7.22;;;6.57;;
20423;SDS011;10371;49.042;8.002;2023-06-10T01:44:38;7.00;;;6.50;;
20423;SDS011;10371;49.042;8.002;2023-06-10T01:45:39;7.97;;;7.20;;
20423;SDS011;10371;49.042;8.002;2023-06-10T01:46:39;8.05;;;7.20;;
20423;SDS011;10371;49.042;8.002;2023-06-10T01:47:39;7.07;;;6.35;;
20423;SDS011;10371;49.042;8.002;2023-06-10T01:48:41;7.03;;;6.43;;
20423;SDS011;10371;49.042;8.002;2023-06-10T01:49:42;7.35;;;6.75;;
20423;SDS011;10371;49.042;8.002;2023-06-10T01:50:42;7.10;;;6.50;;
20423;SDS011;10371;49.042;8.002;2023-06-10T01:51:43;7.68;;;7.07;;
20423;SDS011;10371;49.042;8.002;2023-06-10T01:52:44;7.45;;;6.75;;
20423;SDS011;10371;49.042;8.002;2023-06-10T01:53:45;6.85;;;6.32;;
20423;SDS011;10371;49.042;8.002;2023-06-10T01:54:45;7.20;;;6.60;;
20423;SDS011;10371;49.042;8.002;2023-06-10T01:55:46;6.88;;;6.38;;
20423;SDS011;10371;49.042;8.002;2023-06-10T01:56:46;6.82;;;6.32;;
20423;SDS011;10371;49.042;8.002;2023-06-10T01:57:46;7.28;;;6.60;;
20423;SDS011;10371;49.042;8.002;2023-06-10T01:58:46;6.88;;;6.25;;
20423;SDS011;10371;49.042;8.002;2023-06-10T01:59:47;7.05;;;6.45;;
20423;SDS011;10371;49.042;8.002;2023-06-10T02:00:47;7.43;;;6.78;;
20423;SDS011;10371;49.042;8.002;2023-06-10T02:01:47;7.22;;;6.53;;
20423;SDS011;10371;49.042;8.002;2023-06-10T02:02:48;6.57;;;6.07;;
20423;SDS011;10371;49.042;8.002;2023-06-10T02:03:48;7.03;;;6.43;;
20423;SDS011;10371;49.042;8.002;2023-06-10T02:04:48;7.20;;;6.50;;
20423;SDS011;10371;49.042;8.002;2023-06-10T02:05:49;6.70;;;6.20;;
20423;SDS011;10371;49.042;8.002;2023-06-10T02:06:49;7.05;;;6.45;;
20423;SDS011;10371;49.042;8.002;2023-06-10T02:07:50;7.07;;;6.47;;
20423;SDS011;10371;49.042;8.002;2023-06-10T02:08:50;6.80;;;6.20;;
20423;SDS011;10371;49.042;8.002;2023-06-10T02:09:51;6.90;;;6.30;;
20423;SDS011;10371;49.042;8.002;2023-06-10T02:10:51;9.60;;;6.57;;
20423;SDS011;10371;49.042;8.002;2023-06-10T02:11:51;6.70;;;6.25;;
20423;SDS011;10371;49.042;8.002;2023-06-10T02:12:52;7.47;;;6.88;;
20423;SDS011;10371;49.042;8.002;2023-06-10T02:13:52;6.97;;;6.47;;
20423;SDS011;10371;49.042;8.002;2023-06-10T02:14:52;7.90;;;6.50;;
20423;SDS011;10371;49.042;8.002;2023-06-10T02:15:52;7.03;;;6.40;;
20423;SDS011;10371;49.042;8.002;2023-06-10T02:16:54;7.05;;;6.45;;
20423;SDS011;10371;49.042;8.002;2023-06-10T02:17:56;7.07;;;6.43;;
20423;SDS011;10371;49.042;8.002;2023-06-10T02:18:57;7.50;;;6.75;;
20423;SDS011;10371;49.042;8.002;2023-06-10T02:19:58;7.30;;;6.60;;
20423;SDS011;10371;49.042;8.002;2023-06-10T02:20:59;6.75;;;6.15;;
20423;SDS011;10371;49.042;8.002;2023-06-10T02:22:00;7.47;;;6.88;;
20423;SDS011;10371;49.042;8.002;2023-06-10T02:23:00;6.82;;;6.32;;
20423;SDS011;10371;49.042;8.002;2023-06-10T02:24:01;6.85;;;6.20;;
20423;SDS011;10371;49.042;8.002;2023-06-10T02:25:01;7.38;;;6.78;;
20423;SDS011;10371;49.042;8.002;2023-06-10T02:26:01;7.30;;;6.70;;
20423;SDS011;10371;49.042;8.002;2023-06-10T02:27:02;7.40;;;6.80;;
20423;SDS011;10371;49.042;8.002;2023-06-10T02:28:03;6.82;;;6.22;;
20423;SDS011;10371;49.042;8.002;2023-06-10T02:29:04;6.78;;;6.28;;
20423;SDS011;10371;49.042;8.002;2023-06-10T02:30:04;6.53;;;6.03;;
20423;SDS011;10371;49.042;8.002;2023-06-10T02:31:05;6.75;;;6.18;;
20423;SDS011;10371;49.042;8.002;2023-06-10T02:32:05;6.72;;;6.13;;
20423;SDS011;10371;49.042;8.002;2023-06-10T02:33:06;7.28;;;6.57;;
20423;SDS011;10371;49.042;8.002;2023-06-10T02:34:09;6.82;;;6.32;;
20423;SDS011;10371;49.042;8.002;2023-06-10T02:35:10;6.50;;;5.85;;
20423;SDS011;10371;49.042;8.002;2023-06-10T02:36:12;6.60;;;6.10;;
20423;SDS011;10371;49.042;8.002;2023-06-10T02:37:13;7.20;;;6.53;;
20423;SDS011;10371;49.042;8.002;2023-06-10T02:38:13;6.68;;;6.13;;
20423;SDS011;10371;49.042;8.002;2023-06-10T02:39:13;7.00;;;6.40;;
20423;SDS011;10371;49.042;8.002;2023-06-10T02:40:14;6.88;;;6.28;;
20423;SDS011;10371;49.042;8.002;2023-06-10T02:41:14;6.70;;;6.10;;
20423;SDS011;10371;49.042;8.002;2023-06-10T02:42:14;6.90;;;6.40;;
20423;SDS011;10371;49.042;8.002;2023-06-10T02:43:15;7.38;;;6.15;;
20423;SDS011;10371;49.042;8.002;2023-06-10T02:44:16;6.32;;;5.82;;
20423;SDS011;10371;49.042;8.002;2023-06-10T02:45:18;6.47;;;5.97;;
20423;SDS011;10371;49.042;8.002;2023-06-10T02:46:18;6.82;;;6.28;;
20423;SDS011;10371;49.042;8.002;2023-06-10T02:47:18;6.60;;;6.10;;
20423;SDS011;10371;49.042;8.002;2023-06-10T02:48:19;7.00;;;6.40;;
20423;SDS011;10371;49.042;8.002;2023-06-10T02:49:19;5.88;;;5.45;;
20423;SDS011;10371;49.042;8.002;2023-06-10T02:50:19;6.55;;;6.03;;
20423;SDS011;10371;49.042;8.002;2023-06-10T02:51:20;6.47;;;5.95;;
20423;SDS011;10371;49.042;8.002;2023-06-10T02:52:21;6.57;;;6.07;;
20423;SDS011;10371;49.042;8.002;2023-06-10T02:53:21;7.03;;;6.47;;
20423;SDS011;10371;49.042;8.002;2023-06-10T02:54:21;6.60;;;6.00;;
20423;SDS011;10371;49.042;8.002;2023-06-10T02:55:25;6.93;;;6.32;;
20423;SDS011;10371;49.042;8.002;2023-06-10T02:56:26;6.50;;;5.90;;
20423;SDS011;10371;49.042;8.002;2023-06-10T02:57:27;6.28;;;5.70;;
20423;SDS011;10371;49.042;8.002;2023-06-10T02:58:27;6.63;;;6.00;;
20423;SDS011;10371;49.042;8.002;2023-06-10T02:59:27;6.85;;;6.30;;
20423;SDS011;10371;49.042;8.002;2023-06-10T03:00:28;6.70;;;6.10;;
20423;SDS011;10371;49.042;8.002;2023-06-10T03:01:28;6.70;;;6.15;;
20423;SDS011;10371;49.042;8.002;2023-06-10T03:02:31;6.32;;;5.82;;
20423;SDS011;10371;49.042;8.002;2023-06-10T03:03:31;6.47;;;5.97;;
20423;SDS011;10371;49.042;8.002;2023-06-10T03:04:33;6.70;;;6.10;;
20423;SDS011;10371;49.042;8.002;2023-06-10T03:05:33;7.15;;;6.55;;
20423;SDS011;10371;49.042;8.002;2023-06-10T03:06:34;6.70;;;6.13;;
20423;SDS011;10371;49.042;8.002;2023-06-10T03:07:35;7.07;;;6.50;;
20423;SDS011;10371;49.042;8.002;2023-06-10T03:08:36;6.90;;;6.30;;
20423;SDS011;10371;49.042;8.002;2023-06-10T03:09:37;6.72;;;6.13;;
20423;SDS011;10371;49.042;8.002;2023-06-10T03:10:38;6.78;;;6.28;;
20423;SDS011;10371;49.042;8.002;2023-06-10T03:11:38;6.85;;;6.35;;
20423;SDS011;10371;49.042;8.002;2023-06-10T03:12:38;7.10;;;6.40;;
20423;SDS011;10371;49.042;8.002;2023-06-10T03:13:38;6.95;;;6.35;;
20423;SDS011;10371;49.042;8.002;2023-06-10T03:14:39;6.80;;;6.10;;
20423;SDS011;10371;49.042;8.002;2023-06-10T03:15:40;7.15;;;6.55;;
20423;SDS011;10371;49.042;8.002;2023-06-10T03:16:40;6.75;;;6.10;;
20423;SDS011;10371;49.042;8.002;2023-06-10T03:17:42;6.60;;;6.10;;
20423;SDS011;10371;49.042;8.002;2023-06-10T03:18:42;7.00;;;6.40;;
20423;SDS011;10371;49.042;8.002;2023-06-10T03:19:43;6.88;;;6.38;;
20423;SDS011;10371;49.042;8.002;2023-06-10T03:20:43;7.03;;;6.32;;
20423;SDS011;10371;49.042;8.002;2023-06-10T03:21:44;7.25;;;6.60;;
20423;SDS011;10371;49.042;8.002;2023-06-10T03:22:45;6.72;;;6.10;;
20423;SDS011;10371;49.042;8.002;2023-06-10T03:23:45;6.75;;;6.25;;
20423;SDS011;10371;49.042;8.002;2023-06-10T03:24:45;7.38;;;6.78;;
20423;SDS011;10371;49.042;8.002;2023-06-10T03:25:46;6.57;;;6.13;;
20423;SDS011;10371;49.042;8.002;2023-06-10T03:26:46;7.07;;;6.38;;
20423;SDS011;10371;49.042;8.002;2023-06-10T03:27:47;6.80;;;6.30;;
20423;SDS011;10371;49.042;8.002;2023-06-10T03:28:47;6.93;;;6.38;;
20423;SDS011;10371;49.042;8.002;2023-06-10T03:29:48;6.60;;;6.00;;
20423;SDS011;10371;49.042;8.002;2023-06-10T03:30:48;6.75;;;6.15;;
20423;SDS011;10371;49.042;8.002;2023-06-10T03:31:49;6.70;;;6.10;;
20423;SDS011;10371;49.042;8.002;2023-06-10T03:32:49;7.00;;;6.35;;
20423;SDS011;10371;49.042;8.002;2023-06-10T03:33:50;6.28;;;5.78;;
20423;SDS011;10371;49.042;8.002;2023-06-10T03:34:51;7.18;;;6.57;;
20423;SDS011;10371;49.042;8.002;2023-06-10T03:35:51;6.70;;;6.20;;
20423;SDS011;10371;49.042;8.002;2023-06-10T03:36:51;7.53;;;6.82;;
20423;SDS011;10371;49.042;8.002;2023-06-10T03:37:51;6.75;;;6.25;;
20423;SDS011;10371;49.042;8.002;2023-06-10T03:38:52;7.45;;;6.75;;
20423;SDS011;10371;49.042;8.002;2023-06-10T03:39:53;6.30;;;5.80;;
20423;SDS011;10371;49.042;8.002;2023-06-10T03:40:54;6.97;;;6.35;;
20423;SDS011;10371;49.042;8.002;2023-06-10T03:41:54;6.72;;;6.13;;
20423;SDS011;10371;49.042;8.002;2023-06-10T03:42:56;6.85;;;6.25;;
20423;SDS011;10371;49.042;8.002;2023-06-10T03:43:56;6.75;;;6.25;;
20423;SDS011;10371;49.042;8.002;2023-06-10T03:44:57;6.75;;;6.15;;
20423;SDS011;10371;49.042;8.002;2023-06-10T03:45:57;6.63;;;6.13;;
20423;SDS011;10371;49.042;8.002;2023-06-10T03:46:57;7.40;;;6.70;;
20423;SDS011;10371;49.042;8.002;2023-06-10T03:47:59;6.72;;;6.22;;
20423;SDS011;10371;49.042;8.002;2023-06-10T03:49:01;6.68;;;6.18;;
20423;SDS011;10371;49.042;8.002;2023-06-10T03:50:01;6.40;;;5.90;;
20423;SDS011;10371;49.042;8.002;2023-06-10T03:51:03;6.65;;;6.05;;
20423;SDS011;10371;49.042;8.002;2023-06-10T03:52:03;7.57;;;6.88;;
20423;SDS011;10371;49.042;8.002;2023-06-10T03:53:04;7.07;;;6.45;;
20423;SDS011;10371;49.042;8.002;2023-06-10T03:54:04;7.18;;;6.57;;
20423;SDS011;10371;49.042;8.002;2023-06-10T03:55:05;6.72;;;6.13;;
20423;SDS011;10371;49.042;8.002;2023-06-10T03:56:06;6.65;;;6.13;;
20423;SDS011;10371;49.042;8.002;2023-06-10T03:57:06;7.15;;;6.47;;
20423;SDS011;10371;49.042;8.002;2023-06-10T03:58:06;6.88;;;6.38;;
20423;SDS011;10371;49.042;8.002;2023-06-10T03:59:06;6.10;;;5.65;;
20423;SDS011;10371;49.042;8.002;2023-06-10T04:00:07;6.82;;;6.22;;
20423;SDS011;10371;49.042;8.002;2023-06-10T04:01:11;7.15;;;6.50;;
20423;SDS011;10371;49.042;8.002;2023-06-10T04:02:13;7.18;;;6.50;;
20423;SDS011;10371;49.042;8.002;2023-06-10T04:03:13;6.70;;;6.20;;
20423;SDS011;10371;49.042;8.002;2023-06-10T04:04:14;6.97;;;6.43;;
20423;SDS011;10371;49.042;8.002;2023-06-10T04:05:18;6.30;;;5.70;;
20423;SDS011;10371;49.042;8.002;2023-06-10T04:06:21;7.10;;;6.60;;
20423;SDS011;10371;49.042;8.002;2023-06-10T04:07:22;6.95;;;6.45;;
20423;SDS011;10371;49.042;8.002;2023-06-10T04:08:23;6.88;;;6.38;;
20423;SDS011;10371;49.042;8.002;2023-06-10T04:09:23;6.68;;;6.07;;
20423;SDS011;10371;49.042;8.002;2023-06-10T04:10:24;6.60;;;6.00;;
20423;SDS011;10371;49.042;8.002;2023-06-10T04:11:24;6.78;;;6.18;;
20423;SDS011;10371;49.042;8.002;2023-06-10T04:12:24;6.35;;;5.85;;
20423;SDS011;10371;49.042;8.002;2023-06-10T04:13:25;6.38;;;5.78;;
20423;SDS011;10371;49.042;8.002;2023-06-10T04:14:26;7.05;;;6.45;;
20423;SDS011;10371;49.042;8.002;2023-06-10T04:15:26;6.70;;;6.15;;
20423;SDS011;10371;49.042;8.002;2023-06-10T04:16:27;6.85;;;6.25;;
20423;SDS011;10371;49.042;8.002;2023-06-10T04:17:27;6.57;;;5.90;;
20423;SDS011;10371;49.042;8.002;2023-06-10T04:18:28;6.22;;;5.72;;
20423;SDS011;10371;49.042;8.002;2023-06-10T04:19:28;6.38;;;5.88;;
20423;SDS011;10371;49.042;8.002;2023-06-10T04:20:28;6.18;;;5.68;;
20423;SDS011;10371;49.042;8.002;2023-06-10T04:21:28;6.07;;;5.63;;
20423;SDS011;10371;49.042;8.002;2023-06-10T04:22:29;6.15;;;5.70;;
20423;SDS011;10371;49.042;8.002;2023-06-10T04:23:29;6.18;;;5.68;;
20423;SDS011;10371;49.042;8.002;2023-06-10T04:24:29;6.70;;;6.13;;
20423;SDS011;10371;49.042;8.002;2023-06-10T04:25:29;6.57;;;5.97;;
20423;SDS011;10371;49.042;8.002;2023-06-10T04:26:30;6.32;;;5.82;;
20423;SDS011;10371;49.042;8.002;2023-06-10T04:27:31;6.45;;;5.95;;
20423;SDS011;10371;49.042;8.002;2023-06-10T04:28:32;6.05;;;5.63;;
20423;SDS011;10371;49.042;8.002;2023-06-10T04:29:32;6.68;;;6.18;;
20423;SDS011;10371;49.042;8.002;2023-06-10T04:30:32;7.38;;;5.72;;
20423;SDS011;10371;49.042;8.002;2023-06-10T04:31:33;7.22;;;6.63;;
20423;SDS011;10371;49.042;8.002;2023-06-10T04:32:33;6.85;;;6.25;;
20423;SDS011;10371;49.042;8.002;2023-06-10T04:33:33;7.00;;;6.40;;
20423;SDS011;10371;49.042;8.002;2023-06-10T04:34:34;6.15;;;5.75;;
20423;SDS011;10371;49.042;8.002;2023-06-10T04:35:34;7.03;;;6.53;;
20423;SDS011;10371;49.042;8.002;2023-06-10T04:36:34;6.40;;;5.80;;
20423;SDS011;10371;49.042;8.002;2023-06-10T04:37:34;6.15;;;5.70;;
20423;SDS011;10371;49.042;8.002;2023-06-10T04:38:35;6.95;;;6.20;;
20423;SDS011;10371;49.042;8.002;2023-06-10T04:39:35;6.45;;;5.85;;
20423;SDS011;10371;49.042;8.002;2023-06-10T04:40:35;6.32;;;5.72;;
20423;SDS011;10371;49.042;8.002;2023-06-10T04:41:36;6.35;;;5.75;;
20423;SDS011;10371;49.042;8.002;2023-06-10T04:42:36;6.50;;;5.90;;
20423;SDS011;10371;49.042;8.002;2023-06-10T04:43:37;6.20;;;5.60;;
20423;SDS011;10371;49.042;8.002;2023-06-10T04:44:37;6.35;;;5.78;;
20423;SDS011;10371;49.042;8.002;2023-06-10T04:45:38;6.60;;;5.55;;
20423;SDS011;10371;49.042;8.002;2023-06-10T04:46:39;6.47;;;5.97;;
20423;SDS011;10371;49.042;8.002;2023-06-10T04:47:40;6.00;;;5.53;;
20423;SDS011;10371;49.042;8.002;2023-06-10T04:48:40;8.00;;;5.85;;
20423;SDS011;10371;49.042;8.002;2023-06-10T04:49:42;6.13;;;5.63;;
20423;SDS011;10371;49.042;8.002;2023-06-10T04:50:42;6.65;;;5.82;;
20423;SDS011;10371;49.042;8.002;2023-06-10T04:51:42;6.28;;;5.68;;
20423;SDS011;10371;49.042;8.002;2023-06-10T04:52:43;6.75;;;6.18;;
20423;SDS011;10371;49.042;8.002;2023-06-10T04:53:44;5.63;;;5.22;;
20423;SDS011;10371;49.042;8.002;2023-06-10T04:54:45;6.32;;;5.82;;
20423;SDS011;10371;49.042;8.002;2023-06-10T04:55:45;6.78;;;6.18;;
20423;SDS011;10371;49.042;8.002;2023-06-10T04:56:45;6.13;;;5.63;;
20423;SDS011;10371;49.042;8.002;2023-06-10T04:57:46;6.50;;;5.90;;
20423;SDS011;10371;49.042;8.002;2023-06-10T04:58:46;6.90;;;5.95;;
20423;SDS011;10371;49.042;8.002;2023-06-10T04:59:47;6.40;;;5.90;;
20423;SDS011;10371;49.042;8.002;2023-06-10T05:00:47;6.28;;;5.57;;
20423;SDS011;10371;49.042;8.002;2023-06-10T05:01:48;6.35;;;5.72;;
20423;SDS011;10371;49.042;8.002;2023-06-10T05:02:48;6.35;;;5.78;;
20423;SDS011;10371;49.042;8.002;2023-06-10T05:03:49;6.22;;;5.72;;
20423;SDS011;10371;49.042;8.002;2023-06-10T05:04:49;6.40;;;5.90;;
20423;SDS011;10371;49.042;8.002;2023-06-10T05:05:50;6.35;;;5.85;;
20423;SDS011;10371;49.042;8.002;2023-06-10T05:06:50;7.22;;;6.22;;
20423;SDS011;10371;49.042;8.002;2023-06-10T05:07:50;6.43;;;5.93;;
20423;SDS011;10371;49.042;8.002;2023-06-10T05:08:51;6.65;;;5.85;;
20423;SDS011;10371;49.042;8.002;2023-06-10T05:09:51;6.15;;;5.75;;
20423;SDS011;10371;49.042;8.002;2023-06-10T05:10:51;5.93;;;5.43;;
20423;SDS011;10371;49.042;8.002;2023-06-10T05:11:52;7.13;;;6.15;;
20423;SDS011;10371;49.042;8.002;2023-06-10T05:12:53;5.65;;;5.25;;
20423;SDS011;10371;49.042;8.002;2023-06-10T05:13:53;6.07;;;5.68;;
20423;SDS011;10371;49.042;8.002;2023-06-10T05:14:54;6.63;;;6.10;;
20423;SDS011;10371;49.042;8.002;2023-06-10T05:15:54;6.72;;;6.13;;
20423;SDS011;10371;49.042;8.002;2023-06-10T05:16:54;6.30;;;5.80;;
20423;SDS011;10371;49.042;8.002;2023-06-10T05:17:56;6.25;;;5.75;;
20423;SDS011;10371;49.042;8.002;2023-06-10T05:18:58;6.05;;;5.65;;
20423;SDS011;10371;49.042;8.002;2023-06-10T05:19:58;6.68;;;6.18;;
20423;SDS011;10371;49.042;8.002;2023-06-10T05:20:58;6.63;;;6.13;;
20423;SDS011;10371;49.042;8.002;2023-06-10T05:21:59;6.88;;;6.28;;
20423;SDS011;10371;49.042;8.002;2023-06-10T05:22:59;6.75;;;5.70;;
20423;SDS011;10371;49.042;8.002;2023-06-10T05:24:00;6.47;;;5.97;;
20423;SDS011;10371;49.042;8.002;2023-06-10T05:25:00;6.40;;;5.80;;
20423;SDS011;10371;49.042;8.002;2023-06-10T05:26:00;7.00;;;6.40;;
20423;SDS011;10371;49.042;8.002;2023-06-10T05:27:00;6.97;;;6.38;;
20423;SDS011;10371;49.042;8.002;2023-06-10T05:28:01;6.80;;;6.18;;
20423;SDS011;10371;49.042;8.002;2023-06-10T05:29:01;5.93;;;5.43;;
20423;SDS011;10371;49.042;8.002;2023-06-10T05:30:02;8.10;;;6.28;;
20423;SDS011;10371;49.042;8.002;2023-06-10T05:31:04;6.57;;;6.00;;
20423;SDS011;10371;49.042;8.002;2023-06-10T05:32:04;6.20;;;5.80;;
20423;SDS011;10371;49.042;8.002;2023-06-10T05:33:05;6.75;;;6.25;;
20423;SDS011;10371;49.042;8.002;2023-06-10T05:34:05;6.60;;;6.00;;
20423;SDS011;10371;49.042;8.002;2023-06-10T05:35:05;6.05;;;5.63;;
20423;SDS011;10371;49.042;8.002;2023-06-10T05:36:06;6.68;;;6.03;;
20423;SDS011;10371;49.042;8.002;2023-06-10T05:37:07;6.63;;;6.13;;
20423;SDS011;10371;49.042;8.002;2023-06-10T05:38:07;7.25;;;6.05;;
20423;SDS011;10371;49.042;8.002;2023-06-10T05:39:08;7.30;;;6.60;;
20423;SDS011;10371;49.042;8.002;2023-06-10T05:40:10;8.50;;;6.18;;
20423;SDS011;10371;49.042;8.002;2023-06-10T05:41:10;6.80;;;6.13;;
20423;SDS011;10371;49.042;8.002;2023-06-10T05:42:11;7.25;;;6.55;;
20423;SDS011;10371;49.042;8.002;2023-06-10T05:43:11;7.85;;;6.80;;
20423;SDS011;10371;49.042;8.002;2023-06-10T05:44:11;7.22;;;6.68;;
20423;SDS011;10371;49.042;8.002;2023-06-10T05:45:11;7.00;;;6.35;;
20423;SDS011;10371;49.042;8.002;2023-06-10T05:46:12;6.93;;;6.32;;
20423;SDS011;10371;49.042;8.002;2023-06-10T05:47:13;6.57;;;6.03;;
20423;SDS011;10371;49.042;8.002;2023-06-10T05:48:13;6.80;;;6.20;;
20423;SDS011;10371;49.042;8.002;2023-06-10T05:49:13;6.57;;;5.97;;
20423;SDS011;10371;49.042;8.002;2023-06-10T05:50:14;6.22;;;5.82;;
20423;SDS011;10371;49.042;8.002;2023-06-10T05:51:15;6.65;;;6.05;;
20423;SDS011;10371;49.042;8.002;2023-06-10T05:52:15;6.60;;;6.10;;
20423;SDS011;10371;49.042;8.002;2023-06-10T05:53:15;6.63;;;6.05;;
20423;SDS011;10371;49.042;8.002;2023-06-10T05:54:15;6.70;;;6.10;;
20423;SDS011;10371;49.042;8.002;2023-06-10T05:55:16;6.47;;;5.97;;
20423;SDS011;10371;49.042;8.002;2023-06-10T05:56:16;7.30;;;6.70;;
20423;SDS011;10371;49.042;8.002;2023-06-10T05:57:16;7.20;;;6.60;;
20423;SDS011;10371;49.042;8.002;2023-06-10T05:58:17;6.68;;;6.18;;
20423;SDS011;10371;49.042;8.002;2023-06-10T05:59:17;7.35;;;6.60;;
20423;SDS011;10371;49.042;8.002;2023-06-10T06:00:17;6.57;;;6.07;;
20423;SDS011;10371;49.042;8.002;2023-06-10T06:01:18;6.90;;;6.40;;
20423;SDS011;10371;49.042;8.002;2023-06-10T06:02:19;6.80;;;6.20;;
20423;SDS011;10371;49.042;8.002;2023-06-10T06:03:19;7.20;;;6.60;;
20423;SDS011;10371;49.042;8.002;2023-06-10T06:04:19;9.68;;;6.68;;
20423;SDS011;10371;49.042;8.002;2023-06-10T06:05:20;6.90;;;6.30;;
20423;SDS011;10371;49.042;8.002;2023-06-10T06:06:20;7.20;;;6.60;;
20423;SDS011;10371;49.042;8.002;2023-06-10T06:07:21;6.70;;;6.20;;
20423;SDS011;10371;49.042;8.002;2023-06-10T06:08:22;6.90;;;6.32;;
20423;SDS011;10371;49.042;8.002;2023-06-10T06:09:22;6.70;;;6.20;;
20423;SDS011;10371;49.042;8.002;2023-06-10T06:10:22;6.57;;;6.07;;
20423;SDS011;10371;49.042;8.002;2023-06-10T06:11:23;6.50;;;5.90;;